Time;durP1;ratioP1;P1;durP2;ratioP2;P2;SDS_P1;SDS_P2;PMS_P1;PMS_P2;Temp;Humidity;BMP_temperature;BMP_pressure;BME280_temperature;BME280_humidity;BME280_pressure;Samples;Min_cycle;Max_cycle;Signal;HPM_P1;HPM_P2
2022/07/28 00:00:39;;;;;;;4.10;1.83;;;23.30;90.50;;;;;;5065732;28;20875;-65
2022/07/28 00:03:06;;;;;;;2.40;1.60;;;23.30;90.00;;;;;;5087468;28;20179;-64
2022/07/28 00:05:32;;;;;;;2.40;1.70;;;23.30;89.60;;;;;;5071888;28;20192;-66
2022/07/28 00:07:59;;;;;;;3.00;1.50;;;23.30;89.80;;;;;;5077589;28;20948;-64
2022/07/28 00:10:26;;;;;;;3.13;1.60;;;23.30;89.80;;;;;;5054117;28;20190;-63
2022/07/28 00:12:52;;;;;;;2.00;1.50;;;23.30;88.70;;;;;;5081927;28;20190;-65
2022/07/28 00:15:18;;;;;;;2.07;1.50;;;23.20;87.90;;;;;;5087496;28;20678;-62
2022/07/28 00:17:44;;;;;;;3.60;1.37;;;23.10;87.70;;;;;;5086056;28;20245;-64
2022/07/28 00:20:11;;;;;;;3.00;1.60;;;23.10;88.10;;;;;;5057263;28;20337;-64
2022/07/28 00:22:42;;;;;;;4.57;1.90;;;23.10;88.60;;;;;;5069962;28;21029;-63
2022/07/28 00:25:10;;;;;;;2.00;1.60;;;23.00;88.30;;;;;;5065906;28;20182;-63
2022/07/28 00:27:37;;;;;;;2.47;1.47;;;23.00;88.40;;;;;;5086458;28;20201;-64
2022/07/28 00:30:07;;;;;;;3.17;1.60;;;23.00;88.50;;;;;;5087414;28;20201;-63
2022/07/28 00:32:36;;;;;;;2.17;1.43;;;22.90;88.10;;;;;;5088439;28;20224;-67
2022/07/28 00:35:03;;;;;;;2.27;1.60;;;22.90;87.60;;;;;;5087718;28;20197;-63
2022/07/28 00:37:30;;;;;;;4.93;1.80;;;22.90;87.30;;;;;;5077911;28;20271;-66
2022/07/28 00:39:57;;;;;;;3.50;1.80;;;22.80;87.50;;;;;;5087906;28;20285;-63
2022/07/28 00:42:23;;;;;;;5.33;1.60;;;22.90;87.60;;;;;;5081285;28;20197;-64
2022/07/28 00:44:49;;;;;;;3.43;1.57;;;22.80;86.90;;;;;;5070708;28;20182;-62
2022/07/28 00:47:16;;;;;;;5.10;1.50;;;22.80;87.00;;;;;;5071874;28;20194;-65
2022/07/28 00:49:44;;;;;;;3.07;1.40;;;22.80;86.60;;;;;;5087641;28;20765;-67
2022/07/28 00:52:12;;;;;;;1.70;1.30;;;22.80;86.40;;;;;;5088316;28;20269;-66
2022/07/28 00:54:40;;;;;;;3.40;1.57;;;22.80;86.40;;;;;;5050446;28;20961;-63
2022/07/28 00:57:06;;;;;;;2.47;1.50;;;22.80;85.60;;;;;;5087195;28;20272;-63
2022/07/28 00:59:32;;;;;;;2.20;1.53;;;22.80;85.00;;;;;;5078316;28;20190;-64
2022/07/28 01:02:01;;;;;;;1.73;1.30;;;22.80;84.80;;;;;;5086999;28;20220;-64
2022/07/28 01:04:29;;;;;;;2.90;1.70;;;22.90;83.90;;;;;;5087870;28;20177;-65
2022/07/28 01:07:18;;;;;;;2.27;1.57;;;22.90;83.90;;;;;;5067742;28;20194;-66
2022/07/28 01:10:03;;;;;;;3.43;1.50;;;22.90;83.50;;;;;;5051917;28;20194;-64
2022/07/28 01:12:55;;;;;;;5.13;1.70;;;22.90;83.90;;;;;;5070569;28;20251;-65
2022/07/28 01:15:30;;;;;;;4.53;1.40;;;22.90;84.30;;;;;;5086751;28;20197;-63
2022/07/28 01:18:17;;;;;;;3.67;1.70;;;22.90;84.10;;;;;;5085584;28;20260;-65
2022/07/28 01:21:12;;;;;;;1.83;1.33;;;23.00;84.60;;;;;;5073308;28;20643;-65
2022/07/28 01:23:58;;;;;;;5.57;1.50;;;23.00;83.50;;;;;;5073554;28;20531;-67
2022/07/28 01:27:31;;;;;;;4.80;1.50;;;23.00;83.20;;;;;;5063242;28;20206;-66
2022/07/28 01:30:24;;;;;;;3.00;1.33;;;23.00;84.20;;;;;;5026027;28;20194;-66
2022/07/28 01:33:02;;;;;;;4.30;1.87;;;23.00;83.40;;;;;;5085997;28;20289;-65
2022/07/28 01:36:00;;;;;;;2.33;1.50;;;23.00;82.90;;;;;;5051124;28;20190;-63
2022/07/28 01:38:30;;;;;;;4.70;1.70;;;23.00;82.50;;;;;;5085389;28;20287;-66
2022/07/28 01:40:59;;;;;;;2.03;1.47;;;23.00;82.90;;;;;;5073796;28;20178;-65
2022/07/28 01:43:32;;;;;;;4.20;1.77;;;23.00;82.80;;;;;;5078241;28;20712;-67
2022/07/28 01:46:01;;;;;;;2.07;1.57;;;23.10;82.00;;;;;;5079044;28;20201;-66
2022/07/28 01:48:32;;;;;;;4.60;1.70;;;23.10;83.40;;;;;;5068184;28;20202;-65
2022/07/28 01:51:00;;;;;;;2.47;1.75;;;23.10;83.20;;;;;;5049498;28;20224;-66
2022/07/28 01:53:30;;;;;;;2.23;1.70;;;23.10;83.60;;;;;;5065338;28;20271;-66
2022/07/28 01:56:03;;;;;;;6.43;1.75;;;23.00;84.00;;;;;;5085005;28;20901;-67
2022/07/28 01:58:31;;;;;;;4.83;2.07;;;23.10;84.10;;;;;;5074957;28;20740;-67
2022/07/28 02:01:01;;;;;;;2.60;1.77;;;23.10;84.30;;;;;;5086090;28;20289;-64
2022/07/28 02:03:31;;;;;;;3.23;2.03;;;23.10;84.30;;;;;;5080877;28;20239;-65
2022/07/28 02:06:01;;;;;;;5.73;1.90;;;23.20;84.10;;;;;;5086020;28;20789;-67
2022/07/28 02:08:31;;;;;;;2.70;1.80;;;23.20;84.10;;;;;;5069794;28;20276;-65
2022/07/28 02:13:49;;;;;;;2.47;1.80;;;23.20;83.80;;;;;;5064836;28;20198;-66
2022/07/28 02:16:21;;;;;;;8.30;1.80;;;23.20;83.70;;;;;;5058644;28;20217;-66
2022/07/28 02:18:50;;;;;;;3.70;1.50;;;23.20;83.90;;;;;;5072724;28;20232;-67
2022/07/28 02:21:20;;;;;;;1.90;1.67;;;23.20;83.90;;;;;;5086743;28;20193;-66
2022/07/28 02:23:49;;;;;;;3.33;1.83;;;23.20;84.50;;;;;;5050163;28;20980;-65
2022/07/28 02:26:22;;;;;;;4.43;1.80;;;23.20;84.70;;;;;;5085711;28;20272;-68
2022/07/28 02:28:53;;;;;;;2.40;1.80;;;23.30;84.80;;;;;;5049136;28;20472;-64
2022/07/28 02:31:26;;;;;;;5.37;2.00;;;23.20;83.60;;;;;;5085143;28;20812;-66
2022/07/28 02:33:58;;;;;;;4.10;1.63;;;23.20;82.90;;;;;;5085914;28;20650;-64
2022/07/28 02:37:01;;;;;;;4.18;2.00;;;23.20;82.90;;;;;;5085025;28;20693;-65
2022/07/28 02:39:47;;;;;;;3.90;2.13;;;23.20;82.40;;;;;;5064094;28;20217;-64
2022/07/28 02:42:19;;;;;;;4.70;1.70;;;23.20;82.90;;;;;;5066516;28;20186;-66
2022/07/28 02:44:58;;;;;;;4.18;1.80;;;23.20;83.00;;;;;;5066833;28;20190;-65
2022/07/28 02:47:33;;;;;;;3.93;2.00;;;23.20;83.90;;;;;;5082365;28;20224;-65
2022/07/28 02:50:02;;;;;;;3.20;1.80;;;23.10;83.60;;;;;;5061998;28;20178;-66
2022/07/28 02:52:31;;;;;;;2.67;1.80;;;23.10;83.20;;;;;;5084941;28;20315;-65
2022/07/28 02:55:01;;;;;;;2.63;1.87;;;23.10;83.40;;;;;;5086022;28;20205;-65
2022/07/28 02:57:30;;;;;;;2.70;1.80;;;23.10;83.20;;;;;;5084821;28;20282;-65
2022/07/28 02:59:57;;;;;;;3.13;1.70;;;23.10;83.60;;;;;;5068268;28;20182;-63
2022/07/28 03:02:24;;;;;;;3.07;1.60;;;23.10;83.60;;;;;;5084745;28;20270;-65
2022/07/28 03:05:00;;;;;;;3.55;2.10;;;23.10;83.50;;;;;;5084540;28;20273;-67
2022/07/28 03:07:35;;;;;;;3.20;1.90;;;23.10;83.60;;;;;;5085203;28;20178;-65
2022/07/28 03:10:03;;;;;;;2.20;1.70;;;23.10;83.50;;;;;;5086020;28;20181;-68
2022/07/28 03:12:29;;;;;;;7.67;1.90;;;23.10;83.90;;;;;;5050235;28;20212;-66
2022/07/28 03:14:57;;;;;;;4.63;2.00;;;23.10;83.70;;;;;;5085311;28;20181;-66
2022/07/28 03:17:23;;;;;;;4.17;2.07;;;23.10;83.70;;;;;;5083178;28;20217;-64
2022/07/28 03:19:50;;;;;;;3.80;1.80;;;23.10;83.00;;;;;;5077323;28;20284;-65
2022/07/28 03:22:16;;;;;;;2.33;1.50;;;23.10;83.00;;;;;;5072292;28;20531;-66
2022/07/28 03:24:51;;;;;;;5.87;1.77;;;23.10;83.30;;;;;;5048916;28;20739;-64
2022/07/28 03:27:31;;;;;;;7.13;1.90;;;23.10;83.50;;;;;;5066806;28;20193;-67
2022/07/28 03:30:05;;;;;;;2.83;1.90;;;23.20;83.70;;;;;;5051961;28;20187;-64
2022/07/28 03:32:39;;;;;;;3.57;1.90;;;23.20;83.70;;;;;;5086725;28;20194;-68
2022/07/28 03:35:08;;;;;;;4.90;2.00;;;23.20;84.00;;;;;;5085115;28;20215;-64
2022/07/28 03:37:53;;;;;;;5.27;1.77;;;23.20;83.80;;;;;;5091113;28;20204;-65
2022/07/28 03:40:25;;;;;;;5.10;1.90;;;23.30;83.70;;;;;;5056866;28;20197;-65
2022/07/28 03:42:55;;;;;;;2.03;1.67;;;23.30;83.30;;;;;;5073842;28;20194;-68
2022/07/28 03:45:22;;;;;;;2.43;1.80;;;23.40;83.70;;;;;;5071111;28;20595;-66
2022/07/28 03:47:56;;;;;;;6.20;2.00;;;23.30;83.50;;;;;;5054537;28;20190;-67
2022/07/28 03:50:28;;;;;;;4.07;2.00;;;23.40;83.30;;;;;;5078185;28;20301;-68
2022/07/28 03:52:57;;;;;;;3.70;1.92;;;23.40;83.20;;;;;;5071560;28;20182;-65
2022/07/28 03:55:25;;;;;;;3.93;1.90;;;23.50;83.80;;;;;;5071397;28;20642;-65
2022/07/28 03:57:52;;;;;;;4.10;2.00;;;23.50;84.50;;;;;;5070459;28;20233;-64
2022/07/28 04:00:19;;;;;;;2.60;1.80;;;23.40;85.00;;;;;;5075277;28;20289;-67
2022/07/28 04:02:46;;;;;;;2.03;1.80;;;23.50;85.30;;;;;;5077659;28;20209;-68
2022/07/28 04:05:16;;;;;;;3.43;1.80;;;23.50;85.40;;;;;;5091407;28;20768;-65
2022/07/28 04:07:47;;;;;;;4.15;1.88;;;23.50;85.90;;;;;;5090086;28;20262;-67
2022/07/28 04:10:16;;;;;;;3.50;2.00;;;23.50;86.00;;;;;;5091270;28;20190;-66
2022/07/28 04:12:57;;;;;;;3.17;2.00;;;23.50;86.10;;;;;;5090733;28;20206;-65
2022/07/28 04:15:26;;;;;;;5.33;2.00;;;23.50;86.30;;;;;;5090881;28;20194;-64
2022/07/28 04:17:54;;;;;;;2.63;2.05;;;23.60;86.60;;;;;;5075896;28;20218;-66
2022/07/28 04:20:23;;;;;;;3.05;1.83;;;23.60;87.10;;;;;;5060941;28;20744;-65
2022/07/28 04:22:51;;;;;;;4.70;2.00;;;23.60;87.60;;;;;;5073446;28;20247;-64
2022/07/28 04:25:22;;;;;;;2.77;1.97;;;23.60;88.00;;;;;;5075378;28;20277;-67
2022/07/28 04:27:49;;;;;;;5.13;1.93;;;23.60;88.50;;;;;;5081804;28;20307;-64
2022/07/28 04:30:20;;;;;;;2.40;2.17;;;23.70;89.20;;;;;;5087175;28;20662;-64
2022/07/28 04:32:50;;;;;;;3.00;1.90;;;23.70;89.60;;;;;;5086967;28;20181;-68
2022/07/28 04:35:18;;;;;;;3.00;1.95;;;23.80;90.40;;;;;;5069748;28;20265;-64
2022/07/28 04:37:47;;;;;;;2.25;1.80;;;23.80;90.50;;;;;;5070052;28;20260;-64
2022/07/28 04:40:14;;;;;;;5.40;1.70;;;23.90;90.70;;;;;;5070523;28;20183;-66
2022/07/28 04:42:42;;;;;;;6.28;1.80;;;24.00;90.90;;;;;;5065840;28;20190;-66
2022/07/28 04:45:11;;;;;;;6.07;1.85;;;24.10;91.40;;;;;;5068807;28;20191;-64
2022/07/28 04:47:38;;;;;;;2.60;1.83;;;24.10;91.30;;;;;;5086354;28;20216;-65
2022/07/28 04:50:07;;;;;;;1.90;1.70;;;24.30;91.40;;;;;;5090034;28;20178;-64
2022/07/28 04:52:33;;;;;;;4.90;1.90;;;24.30;91.80;;;;;;5054345;28;20216;-66
2022/07/28 04:54:59;;;;;;;2.53;2.00;;;24.40;91.60;;;;;;5089167;28;20759;-66
2022/07/28 04:57:28;;;;;;;3.70;2.05;;;24.50;91.20;;;;;;5088706;28;20239;-66
2022/07/28 05:00:01;;;;;;;3.95;2.15;;;24.60;91.10;;;;;;5080237;28;20209;-64
2022/07/28 05:02:27;;;;;;;5.70;1.77;;;24.70;91.30;;;;;;5089232;28;20193;-64
2022/07/28 05:04:53;;;;;;;3.83;2.00;;;24.70;90.90;;;;;;5089812;28;20266;-64
2022/07/28 05:07:20;;;;;;;3.28;1.92;;;24.80;91.20;;;;;;5089396;28;20742;-65
2022/07/28 05:09:46;;;;;;;3.08;1.92;;;24.90;91.30;;;;;;5086589;28;20254;-68
2022/07/28 05:12:12;;;;;;;2.08;1.77;;;24.90;90.70;;;;;;5053968;28;20216;-65
2022/07/28 05:14:39;;;;;;;2.35;1.75;;;24.90;91.00;;;;;;5089624;28;20202;-65
2022/07/28 05:17:05;;;;;;;2.90;1.80;;;25.00;90.60;;;;;;5087731;28;20205;-64
2022/07/28 05:19:31;;;;;;;4.88;1.70;;;25.10;90.00;;;;;;5088010;28;20177;-65
2022/07/28 05:21:58;;;;;;;3.75;1.90;;;25.10;89.00;;;;;;5088719;28;20587;-67
2022/07/28 05:24:24;;;;;;;3.00;1.90;;;25.20;89.10;;;;;;5089494;28;20178;-66
2022/07/28 05:26:53;;;;;;;3.60;1.70;;;25.30;88.50;;;;;;5087996;28;20202;-65
2022/07/28 05:29:20;;;;;;;2.50;1.83;;;25.40;89.00;;;;;;5071186;28;20190;-64
2022/07/28 05:31:46;;;;;;;3.13;1.80;;;25.50;89.70;;;;;;5089647;28;20190;-65
2022/07/28 05:34:12;;;;;;;4.07;1.90;;;25.60;88.80;;;;;;5087500;28;21023;-65
2022/07/28 05:36:39;;;;;;;3.70;1.75;;;25.60;87.90;;;;;;5058667;28;20290;-66
2022/07/28 05:39:05;;;;;;;3.53;1.85;;;25.60;87.00;;;;;;5068920;28;20178;-66
2022/07/28 05:41:31;;;;;;;4.63;2.05;;;25.60;88.10;;;;;;5076534;28;20812;-66
2022/07/28 05:43:59;;;;;;;2.10;1.83;;;25.60;87.10;;;;;;5083851;28;20209;-65
2022/07/28 05:46:27;;;;;;;3.70;1.80;;;25.70;87.30;;;;;;5088763;28;20186;-64
2022/07/28 05:48:53;;;;;;;2.08;1.73;;;25.80;86.50;;;;;;5086864;28;20274;-65
2022/07/28 05:51:20;;;;;;;3.72;1.90;;;25.80;86.50;;;;;;5065102;28;20189;-67
2022/07/28 05:53:46;;;;;;;1.75;1.58;;;25.90;85.90;;;;;;5074429;28;20243;-64
2022/07/28 05:56:12;;;;;;;2.70;1.80;;;25.90;86.80;;;;;;5081602;28;20206;-67
2022/07/28 05:58:41;;;;;;;4.78;1.90;;;25.90;85.70;;;;;;5050630;28;20414;-65
2022/07/28 06:01:08;;;;;;;3.35;1.95;;;26.00;87.40;;;;;;5083686;28;20623;-62
2022/07/28 06:03:35;;;;;;;2.72;1.92;;;26.00;86.30;;;;;;5067060;28;20714;-66
2022/07/28 06:06:02;;;;;;;2.50;1.77;;;26.10;85.90;;;;;;5092434;28;20189;-68
2022/07/28 06:08:29;;;;;;;4.00;2.10;;;26.10;86.50;;;;;;5087659;28;20189;-64
2022/07/28 06:11:08;;;;;;;4.88;2.00;;;26.20;85.10;;;;;;5069749;28;20178;-62
2022/07/28 06:13:35;;;;;;;4.10;1.65;;;26.30;85.70;;;;;;5069856;28;20657;-63
2022/07/28 06:16:06;;;;;;;5.75;2.00;;;26.40;81.40;;;;;;5068882;28;21027;-64
2022/07/28 06:18:33;;;;;;;6.93;2.03;;;26.50;84.10;;;;;;5076880;28;20272;-64
2022/07/28 06:20:59;;;;;;;2.47;1.90;;;26.60;84.20;;;;;;5089145;28;20202;-64
2022/07/28 06:23:29;;;;;;;4.63;1.80;;;26.60;83.10;;;;;;5067544;28;20179;-63
2022/07/28 06:25:59;;;;;;;3.03;1.90;;;26.70;83.30;;;;;;5067996;28;20662;-64
2022/07/28 06:28:25;;;;;;;3.97;1.83;;;26.80;82.20;;;;;;5067621;28;20269;-64
2022/07/28 06:30:52;;;;;;;4.65;1.83;;;26.90;80.90;;;;;;5081806;28;20201;-64
2022/07/28 06:33:21;;;;;;;9.15;1.85;;;27.10;81.10;;;;;;5087768;28;20312;-64
2022/07/28 06:35:48;;;;;;;4.78;1.80;;;27.10;81.70;;;;;;5088288;28;20514;-63
2022/07/28 06:38:14;;;;;;;2.45;1.90;;;27.20;80.40;;;;;;5087737;28;20701;-64
2022/07/28 06:40:43;;;;;;;2.95;1.80;;;27.30;79.80;;;;;;5088245;28;20197;-63
2022/07/28 06:43:09;;;;;;;8.75;1.90;;;27.40;80.50;;;;;;5066911;28;20197;-64
2022/07/28 06:45:36;;;;;;;2.80;1.85;;;27.40;80.60;;;;;;5084753;28;20216;-67
2022/07/28 06:48:02;;;;;;;3.17;2.15;;;27.60;79.20;;;;;;5084535;28;20194;-63
2022/07/28 06:50:28;;;;;;;4.68;1.90;;;27.80;77.60;;;;;;5086687;28;20190;-64
2022/07/28 06:52:57;;;;;;;9.52;1.92;;;27.90;78.30;;;;;;5086670;28;20304;-63
2022/07/28 06:55:23;;;;;;;2.00;1.77;;;28.00;77.00;;;;;;5086001;28;20297;-63
2022/07/28 06:57:49;;;;;;;3.47;1.80;;;28.20;76.70;;;;;;5049946;28;20190;-65
2022/07/28 07:00:16;;;;;;;5.18;1.98;;;28.30;77.10;;;;;;5084287;28;20195;-64
2022/07/28 07:02:43;;;;;;;3.15;1.95;;;28.40;76.30;;;;;;5086216;28;20224;-63
2022/07/28 07:05:11;;;;;;;5.88;2.03;;;28.40;77.60;;;;;;5068169;28;20194;-66
2022/07/28 07:07:37;;;;;;;6.18;2.42;;;28.50;78.50;;;;;;5084994;28;20586;-66
2022/07/28 07:10:05;;;;;;;3.17;2.10;;;28.70;77.50;;;;;;5080391;28;20205;-65
2022/07/28 07:12:35;;;;;;;5.03;2.00;;;28.80;78.40;;;;;;5083851;28;20193;-65
2022/07/28 07:15:03;;;;;;;3.05;1.98;;;28.90;78.50;;;;;;5089375;28;20197;-64
2022/07/28 07:17:30;;;;;;;8.98;2.38;;;29.00;77.80;;;;;;5091222;28;20582;-63
2022/07/28 07:19:56;;;;;;;9.13;2.33;;;29.10;77.50;;;;;;5089434;28;20977;-63
2022/07/28 07:22:22;;;;;;;4.10;2.40;;;29.10;78.20;;;;;;5055251;28;20189;-65
2022/07/28 07:24:48;;;;;;;4.45;2.05;;;29.20;79.10;;;;;;5083209;28;20182;-65
2022/07/28 07:27:16;;;;;;;5.18;1.95;;;29.40;78.20;;;;;;5091164;28;20666;-65
2022/07/28 07:29:43;;;;;;;4.25;2.17;;;29.40;79.40;;;;;;5090793;28;20239;-64
2022/07/28 07:32:09;;;;;;;4.30;2.03;;;29.50;79.70;;;;;;5090007;28;20197;-64
2022/07/28 07:34:41;;;;;;;4.72;2.30;;;29.70;80.70;;;;;;5070805;28;20311;-64
2022/07/28 07:37:12;;;;;;;6.05;2.20;;;29.80;80.30;;;;;;5078964;28;20211;-65
2022/07/28 07:39:38;;;;;;;5.72;2.28;;;29.80;80.70;;;;;;5087961;28;20201;-66
2022/07/28 07:42:05;;;;;;;7.00;2.15;;;29.90;81.30;;;;;;5090773;28;20186;-63
2022/07/28 07:44:32;;;;;;;5.53;2.05;;;30.00;80.50;;;;;;5089579;28;20190;-66
2022/07/28 07:46:58;;;;;;;4.25;2.20;;;30.10;82.00;;;;;;5072979;28;20186;-63
2022/07/28 07:49:26;;;;;;;4.05;2.10;;;30.20;82.50;;;;;;5089916;28;20190;-64
2022/07/28 07:51:52;;;;;;;3.90;2.25;;;30.30;84.50;;;;;;5068681;28;20320;-65
2022/07/28 07:54:20;;;;;;;7.53;2.25;;;30.40;85.60;;;;;;5072987;28;20202;-63
2022/07/28 07:56:46;;;;;;;3.92;2.13;;;30.60;85.20;;;;;;5088550;28;20309;-63
2022/07/28 07:59:13;;;;;;;3.13;2.20;;;30.70;86.20;;;;;;5090014;28;20186;-63
2022/07/28 08:01:39;;;;;;;3.83;2.08;;;30.70;86.30;;;;;;5089607;28;20182;-64
2022/07/28 08:04:05;;;;;;;7.43;2.35;;;30.70;86.40;;;;;;5089940;28;20242;-63
2022/07/28 08:06:32;;;;;;;5.53;2.55;;;30.80;86.50;;;;;;5086636;28;20186;-67
2022/07/28 08:08:58;;;;;;;4.88;2.20;;;30.80;86.80;;;;;;5047553;28;20178;-64
2022/07/28 08:11:24;;;;;;;4.97;2.03;;;30.90;85.80;;;;;;5063507;28;20539;-64
2022/07/28 08:13:51;;;;;;;6.28;2.28;;;31.10;83.90;;;;;;5081806;28;20658;-62
2022/07/28 08:16:19;;;;;;;6.25;2.15;;;31.10;80.00;;;;;;5088911;28;20232;-65
2022/07/28 08:18:45;;;;;;;9.82;2.00;;;31.00;80.50;;;;;;5089991;28;20275;-64
2022/07/28 08:21:12;;;;;;;7.75;2.10;;;31.20;82.40;;;;;;5090322;28;20185;-64
2022/07/28 08:23:38;;;;;;;6.43;2.28;;;31.20;82.40;;;;;;5090798;28;20178;-63
2022/07/28 08:26:04;;;;;;;9.15;2.20;;;31.40;83.00;;;;;;5077551;28;20179;-63
2022/07/28 08:28:31;;;;;;;8.65;2.10;;;31.50;80.10;;;;;;5071987;28;20685;-65
2022/07/28 08:30:57;;;;;;;6.40;1.85;;;31.60;79.20;;;;;;5082340;28;20200;-64
2022/07/28 08:33:23;;;;;;;6.45;2.40;;;31.60;80.10;;;;;;5071687;28;20723;-63
2022/07/28 08:35:50;;;;;;;10.88;2.30;;;31.70;79.70;;;;;;5067745;28;20297;-64
2022/07/28 08:38:16;;;;;;;6.50;2.17;;;31.70;79.40;;;;;;5087910;28;20233;-62
2022/07/28 08:40:48;;;;;;;6.35;2.45;;;31.70;78.90;;;;;;5088496;28;20239;-63
2022/07/28 08:43:41;;;;;;;7.35;1.90;;;31.80;79.30;;;;;;5065498;28;20305;-62
2022/07/28 08:46:08;;;;;;;4.13;2.28;;;31.90;80.80;;;;;;5067468;28;20664;-65
2022/07/28 08:48:36;;;;;;;3.28;2.05;;;32.10;79.50;;;;;;5076249;28;20609;-64
2022/07/28 08:51:10;;;;;;;3.40;2.15;;;32.20;82.80;;;;;;5071904;28;20183;-63
2022/07/28 08:53:39;;;;;;;4.60;2.15;;;32.20;87.90;;;;;;5088902;28;20178;-63
2022/07/28 08:56:14;;;;;;;4.45;2.25;;;32.20;89.80;;;;;;5065258;28;20754;-63
2022/07/28 08:58:41;;;;;;;10.75;2.70;;;32.40;91.50;;;;;;5073210;28;20242;-64
2022/07/28 09:01:09;;;;;;;3.40;2.10;;;32.30;91.60;;;;;;5076663;28;20251;-64
2022/07/28 09:03:38;;;;;;;6.88;2.20;;;32.40;93.40;;;;;;5087135;28;20285;-64
2022/07/28 09:06:05;;;;;;;4.15;2.28;;;32.60;93.60;;;;;;5063404;28;20642;-65
2022/07/28 09:08:32;;;;;;;7.60;2.50;;;32.70;93.60;;;;;;5058307;28;20186;-66
2022/07/28 09:10:58;;;;;;;7.47;2.50;;;32.70;93.10;;;;;;5058874;28;20647;-66
2022/07/28 09:13:25;;;;;;;7.25;2.47;;;32.80;93.90;;;;;;5083242;28;20629;-66
2022/07/28 09:15:52;;;;;;;7.32;2.47;;;32.80;94.30;;;;;;5065842;28;20190;-63
2022/07/28 09:18:19;;;;;;;7.00;2.50;;;32.80;94.60;;;;;;5084595;28;20658;-63
2022/07/28 09:20:46;;;;;;;7.15;2.67;;;32.90;94.80;;;;;;5068465;28;21007;-63
2022/07/28 09:23:13;;;;;;;5.43;2.67;;;33.00;95.00;;;;;;5079057;28;20194;-64
2022/07/28 09:25:39;;;;;;;3.83;2.55;;;33.00;94.70;;;;;;5088073;28;20944;-65
2022/07/28 09:28:20;;;;;;;7.88;2.50;;;33.10;94.70;;;;;;5088363;28;20197;-64
2022/07/28 09:30:48;;;;;;;6.25;2.85;;;33.20;95.50;;;;;;5070597;28;20683;-65
2022/07/28 09:33:28;;;;;;;4.22;2.50;;;33.10;95.40;;;;;;5085465;28;20178;-65
2022/07/28 09:35:58;;;;;;;8.77;2.35;;;33.20;95.90;;;;;;5085133;28;20175;-64
2022/07/28 09:38:29;;;;;;;10.85;2.83;;;33.30;95.90;;;;;;5074420;28;20198;-64
2022/07/28 09:41:05;;;;;;;6.68;3.03;;;33.40;96.10;;;;;;5070396;28;20670;-67
2022/07/28 09:43:44;;;;;;;5.53;2.60;;;33.30;96.60;;;;;;5088828;28;20182;-64
2022/07/28 09:46:16;;;;;;;10.32;2.95;;;33.40;96.80;;;;;;5085371;28;20281;-66
2022/07/28 09:48:50;;;;;;;6.25;2.30;;;33.40;97.10;;;;;;5087969;28;20263;-65
2022/07/28 09:51:26;;;;;;;6.65;2.75;;;33.40;97.50;;;;;;5075585;28;20947;-66
2022/07/28 09:54:07;;;;;;;12.55;3.08;;;33.40;97.80;;;;;;5069200;28;20561;-65
2022/07/28 09:56:34;;;;;;;7.38;2.67;;;33.50;98.50;;;;;;5066910;28;20210;-65
2022/07/28 09:59:02;;;;;;;8.60;2.80;;;33.60;98.90;;;;;;5083714;28;20186;-64
2022/07/28 10:01:30;;;;;;;11.50;3.15;;;33.70;99.10;;;;;;5082094;28;20260;-67
2022/07/28 10:04:00;;;;;;;4.55;2.65;;;33.70;99.60;;;;;;5082938;28;20185;-65
2022/07/28 10:06:34;;;;;;;4.50;2.33;;;33.60;99.50;;;;;;5083884;28;20271;-62
2022/07/28 10:09:06;;;;;;;16.02;2.95;;;33.60;99.90;;;;;;5078783;28;20182;-65
2022/07/28 10:11:36;;;;;;;7.45;2.58;;;33.60;99.90;;;;;;5065527;28;20218;-66
2022/07/28 10:14:05;;;;;;;8.77;3.05;;;33.70;99.90;;;;;;5061508;28;20272;-66
2022/07/28 10:16:40;;;;;;;5.45;2.72;;;33.80;99.90;;;;;;5060488;28;20693;-67
2022/07/28 10:19:07;;;;;;;7.07;3.00;;;33.80;99.90;;;;;;5059747;28;20203;-67
2022/07/28 10:21:43;;;;;;;7.13;2.67;;;33.70;99.90;;;;;;5063801;28;20229;-65
2022/07/28 10:24:20;;;;;;;12.43;3.00;;;33.80;99.60;;;;;;5050451;28;20200;-64
2022/07/28 10:26:49;;;;;;;10.82;2.72;;;33.80;99.30;;;;;;5078085;28;20375;-65
2022/07/28 10:29:20;;;;;;;5.35;2.45;;;33.80;98.80;;;;;;5045747;23;20262;-73
2022/07/28 10:31:54;;;;;;;8.05;2.55;;;33.80;99.60;;;;;;4989666;28;20267;-72
2022/07/28 10:34:49;;;;;;;5.75;2.70;;;33.80;99.10;;;;;;4985930;28;20192;-73
2022/07/28 10:37:24;;;;;;;14.15;3.25;;;33.90;99.80;;;;;;4986454;28;20229;-73
2022/07/28 10:40:11;;;;;;;6.93;2.80;;;33.90;99.70;;;;;;4985481;28;20181;-73
2022/07/28 10:42:41;;;;;;;9.05;3.40;;;33.80;99.00;;;;;;4988817;28;20197;-72
2022/07/28 10:45:12;;;;;;;8.27;3.00;;;33.80;99.90;;;;;;4986109;28;20189;-72
2022/07/28 10:48:04;;;;;;;10.02;3.42;;;33.70;99.90;;;;;;4983763;28;20201;-73
2022/07/28 10:50:35;;;;;;;13.18;3.35;;;33.80;99.90;;;;;;5016673;28;20200;-72
2022/07/28 10:53:08;;;;;;;11.98;3.38;;;33.80;99.70;;;;;;4987620;28;20201;-72
2022/07/28 10:56:02;;;;;;;5.20;2.80;;;33.80;99.50;;;;;;4987935;28;20264;-72
2022/07/28 10:58:46;;;;;;;6.95;3.30;;;33.90;99.40;;;;;;4970881;28;20201;-73
2022/07/28 11:01:37;;;;;;;10.13;3.20;;;33.70;99.40;;;;;;4976688;28;20216;-73
2022/07/28 11:04:08;;;;;;;10.93;3.03;;;33.70;99.00;;;;;;4988072;28;20185;-73
2022/07/28 11:06:38;;;;;;;6.57;3.00;;;33.70;99.00;;;;;;4984531;28;20653;-73
2022/07/28 11:09:17;;;;;;;8.65;3.25;;;33.70;99.20;;;;;;4997129;28;20281;-73
2022/07/28 11:11:50;;;;;;;9.63;3.67;;;33.80;99.20;;;;;;4966360;28;20208;-74
2022/07/28 11:14:28;;;;;;;7.88;3.00;;;33.90;98.90;;;;;;4980010;28;20193;-73
2022/07/28 11:17:00;;;;;;;6.43;3.05;;;33.80;99.20;;;;;;4984411;28;20205;-73
2022/07/28 11:19:43;;;;;;;6.45;3.50;;;34.00;99.40;;;;;;4983984;28;20239;-73
2022/07/28 11:22:18;;;;;;;7.00;3.47;;;33.90;99.90;;;;;;4987545;28;20220;-74
2022/07/28 11:24:57;;;;;;;18.10;3.45;;;33.80;99.90;;;;;;4981771;28;20189;-73
2022/07/28 11:27:42;;;;;;;6.30;3.00;;;33.70;99.90;;;;;;4984449;28;20296;-73
2022/07/28 11:30:41;;;;;;;9.57;3.63;;;33.70;99.30;;;;;;4999965;28;20197;-73
2022/07/28 11:33:08;;;;;;;4.20;2.97;;;33.70;99.90;;;;;;4981575;28;20184;-74
2022/07/28 11:35:41;;;;;;;5.65;3.13;;;33.70;99.80;;;;;;4987081;28;20240;-74
2022/07/28 11:38:10;;;;;;;9.25;3.45;;;33.70;99.50;;;;;;4988509;28;20546;-74
2022/07/28 11:40:45;;;;;;;8.00;3.72;;;33.80;99.80;;;;;;4986138;28;20178;-73
2022/07/28 11:43:30;;;;;;;5.80;3.22;;;33.80;99.90;;;;;;4961083;28;20185;-74
2022/07/28 11:46:05;;;;;;;8.43;3.45;;;33.60;99.90;;;;;;4969203;28;20190;-74
2022/07/28 11:48:32;;;;;;;7.65;3.53;;;33.60;98.80;;;;;;4987606;28;20535;-73
2022/07/28 11:51:05;;;;;;;7.85;3.65;;;33.60;99.90;;;;;;4968756;28;20582;-74
2022/07/28 11:53:42;;;;;;;6.10;3.55;;;33.80;99.90;;;;;;4976481;28;20177;-75
2022/07/28 11:56:24;;;;;;;13.07;3.60;;;33.80;99.90;;;;;;4983179;28;20676;-74
2022/07/28 11:59:03;;;;;;;6.32;2.80;;;33.80;99.90;;;;;;4974016;28;20240;-74
2022/07/28 12:01:32;;;;;;;8.48;3.63;;;33.90;99.10;;;;;;4989138;28;20633;-74
2022/07/28 12:03:59;;;;;;;8.50;3.88;;;33.80;99.10;;;;;;4972207;28;20292;-73
2022/07/28 12:06:35;;;;;;;13.23;4.18;;;33.70;99.90;;;;;;4989322;28;20193;-73
2022/07/28 12:09:08;;;;;;;7.88;3.40;;;33.60;99.90;;;;;;4981099;28;20255;-75
2022/07/28 12:11:37;;;;;;;9.32;3.83;;;33.50;99.80;;;;;;4987279;28;20192;-73
2022/07/28 12:14:13;;;;;;;10.82;3.03;;;33.50;99.10;;;;;;4969040;28;20208;-73
2022/07/28 12:16:42;;;;;;;5.00;3.13;;;33.50;98.00;;;;;;4997957;28;20216;-73
2022/07/28 12:19:13;;;;;;;13.70;4.15;;;33.50;98.80;;;;;;4988893;28;20617;-73
2022/07/28 12:21:46;;;;;;;5.72;3.45;;;33.50;99.90;;;;;;4970739;28;20789;-72
2022/07/28 12:24:30;;;;;;;6.00;3.58;;;33.60;99.90;;;;;;4989471;28;20189;-73
2022/07/28 12:26:58;;;;;;;6.55;4.05;;;33.70;99.90;;;;;;4990300;28;20181;-72
2022/07/28 12:29:30;;;;;;;6.45;3.90;;;33.60;99.90;;;;;;4983161;28;20264;-72
2022/07/28 12:32:04;;;;;;;14.10;3.75;;;33.50;99.80;;;;;;4989310;28;20197;-72
2022/07/28 12:34:33;;;;;;;10.70;3.90;;;33.50;99.90;;;;;;4987719;28;20301;-72
2022/07/28 12:37:08;;;;;;;5.68;3.78;;;33.40;99.90;;;;;;4986625;28;20205;-73
2022/07/28 12:39:40;;;;;;;9.18;3.63;;;33.50;99.90;;;;;;4982301;28;20196;-73
2022/07/28 12:42:10;;;;;;;11.35;4.10;;;33.50;99.90;;;;;;4986638;28;20232;-73
2022/07/28 12:44:41;;;;;;;9.82;3.70;;;33.60;99.90;;;;;;4984751;28;20232;-73
2022/07/28 12:47:12;;;;;;;10.75;4.22;;;33.60;99.90;;;;;;4972978;28;20198;-73
2022/07/28 12:49:41;;;;;;;4.75;3.45;;;33.50;99.90;;;;;;4986645;28;20197;-74
2022/07/28 12:52:23;;;;;;;10.63;4.13;;;33.50;99.90;;;;;;4983919;28;20196;-72
2022/07/28 12:54:56;;;;;;;9.77;4.30;;;33.50;99.90;;;;;;4967885;28;20193;-73
2022/07/28 12:57:50;;;;;;;5.97;3.55;;;33.50;99.90;;;;;;4985906;28;20214;-73
2022/07/28 13:00:30;;;;;;;6.43;4.30;;;33.50;99.90;;;;;;4982213;28;20274;-73
2022/07/28 13:03:01;;;;;;;5.45;3.80;;;33.50;99.90;;;;;;4988989;28;20177;-73
2022/07/28 13:08:25;;;;;;;10.40;4.05;;;33.30;99.90;;;;;;4978019;28;20185;-74
2022/07/28 13:10:52;;;;;;;5.93;3.90;;;33.40;99.90;;;;;;4991322;28;20222;-73